createdAt,value
2019-05-13T00:03:08.109Z,4.78
2019-05-13T00:09:14.146Z,4.90
2019-05-13T00:15:18.424Z,4.90
2019-05-13T00:21:23.280Z,5.10
2019-05-13T00:27:27.683Z,5.70
2019-05-13T00:33:33.853Z,6.20
2019-05-13T00:39:38.272Z,5.83
2019-05-13T00:45:44.327Z,6.50
2019-05-13T00:51:48.740Z,6.73
2019-05-13T00:57:54.117Z,7.10
2019-05-13T01:03:58.578Z,7.62
2019-05-13T01:10:04.224Z,7.67
2019-05-13T01:16:08.709Z,8.63
2019-05-13T01:22:13.502Z,8.67
2019-05-13T01:28:17.930Z,9.57
2019-05-13T01:34:23.615Z,9.07
2019-05-13T01:40:28.051Z,9.70
2019-05-13T01:46:34.524Z,9.57
2019-05-13T01:52:38.372Z,10.70
2019-05-13T01:58:44.811Z,10.73
2019-05-13T02:04:49.024Z,10.95
2019-05-13T02:10:57.458Z,11.17
2019-05-13T02:17:03.908Z,11.30
2019-05-13T02:23:09.295Z,11.10
2019-05-13T02:29:16.378Z,11.50
2019-05-13T02:35:23.127Z,12.13
2019-05-13T02:41:26.561Z,12.30
2019-05-13T02:47:33.100Z,11.30
2019-05-13T02:53:37.157Z,12.23
2019-05-13T02:59:42.244Z,13.00
2019-05-13T03:05:46.812Z,12.60
2019-05-13T03:11:53.635Z,12.70
2019-05-13T03:18:05.549Z,12.60
2019-05-13T03:24:13.148Z,12.27
2019-05-13T03:30:17.112Z,12.80
2019-05-13T03:36:26.104Z,12.83
2019-05-13T03:42:33.274Z,13.03
2019-05-13T03:48:38.019Z,13.70
2019-05-13T03:54:43.613Z,13.60
2019-05-13T04:00:48.283Z,13.37
2019-05-13T04:06:53.172Z,13.17
2019-05-13T04:12:57.576Z,14.03
2019-05-13T04:19:02.742Z,13.50
2019-05-13T04:25:07.583Z,12.93
2019-05-13T04:31:14.178Z,13.30
2019-05-13T04:37:17.737Z,12.27
2019-05-13T04:43:23.391Z,11.57
2019-05-13T04:49:28.062Z,11.37
2019-05-13T04:55:33.295Z,10.77
2019-05-13T05:01:59.567Z,10.77
2019-05-13T05:08:24.902Z,9.63
2019-05-13T05:15:05.630Z,9.47
2019-05-13T05:21:18.001Z,9.07
2019-05-13T05:27:59.122Z,8.20
2019-05-13T05:35:01.229Z,10.20
2019-05-13T05:41:07.147Z,10.15
2019-05-13T05:47:12.055Z,8.80
2019-05-13T05:53:17.646Z,8.50
2019-05-13T05:59:23.890Z,8.08
2019-05-13T06:05:28.813Z,7.37
2019-05-13T06:11:33.950Z,6.35
2019-05-13T06:17:38.154Z,6.28
2019-05-13T06:23:42.391Z,5.40
2019-05-13T06:29:49.143Z,5.47
2019-05-13T06:35:52.600Z,4.90
2019-05-13T06:41:56.861Z,4.25
2019-05-13T06:48:02.387Z,4.70
2019-05-13T06:54:06.941Z,4.12
2019-05-13T07:00:12.420Z,4.20
2019-05-13T07:06:16.776Z,4.05
2019-05-13T07:12:21.878Z,4.50
2019-05-13T07:18:26.323Z,4.08
2019-05-13T07:24:32.210Z,4.10
2019-05-13T07:30:43.755Z,3.90
2019-05-13T07:36:48.572Z,3.58
2019-05-13T07:42:52.797Z,3.30
2019-05-13T07:48:56.980Z,2.87
2019-05-13T07:55:01.735Z,3.80
2019-05-13T08:01:06.064Z,4.42
2019-05-13T08:07:11.981Z,3.22
2019-05-13T08:13:16.205Z,3.83
2019-05-13T08:19:21.807Z,4.30
2019-05-13T08:25:26.460Z,5.78
2019-05-13T08:31:32.221Z,6.67
2019-05-13T08:37:36.740Z,6.40
2019-05-13T08:43:41.912Z,9.18
2019-05-13T08:49:46.268Z,6.30
2019-05-13T08:55:51.768Z,5.10
2019-05-13T09:01:56.213Z,5.80
2019-05-13T09:08:01.296Z,5.25
2019-05-13T09:14:05.960Z,5.40
2019-05-13T09:20:11.458Z,2.50
2019-05-13T09:26:16.016Z,2.45
2019-05-13T09:32:21.532Z,2.85
2019-05-13T09:38:25.991Z,2.83
2019-05-13T09:44:32.692Z,3.00
2019-05-13T09:50:36.437Z,3.50
2019-05-13T09:56:41.409Z,2.92
2019-05-13T10:02:45.848Z,3.45
2019-05-13T10:08:52.233Z,3.60
2019-05-13T10:14:56.247Z,3.30
2019-05-13T10:21:00.982Z,2.90
2019-05-13T10:27:05.173Z,4.37
2019-05-13T10:33:11.867Z,3.08
2019-05-13T10:39:15.528Z,3.47
2019-05-13T10:45:22.310Z,4.03
2019-05-13T10:51:26.156Z,4.17
2019-05-13T10:57:31.824Z,4.20
2019-05-13T11:03:36.358Z,4.45
2019-05-13T11:09:41.789Z,3.90
2019-05-13T11:15:46.373Z,3.45
2019-05-13T11:21:51.076Z,3.77
2019-05-13T11:27:58.355Z,3.72
2019-05-13T11:34:02.123Z,3.92
2019-05-13T11:40:06.577Z,4.30
2019-05-13T11:46:10.873Z,4.30
2019-05-13T11:52:15.054Z,4.62
2019-05-13T11:58:19.257Z,4.30
2019-05-13T12:04:24.252Z,3.70
2019-05-13T12:10:28.693Z,4.37
2019-05-13T12:16:35.016Z,4.85
2019-05-13T12:22:38.805Z,4.30
2019-05-13T12:28:43.212Z,4.62
2019-05-13T12:34:47.503Z,4.20
2019-05-13T12:40:52.851Z,4.60
2019-05-13T12:46:57.458Z,3.77
2019-05-13T12:53:02.864Z,4.80
2019-05-13T12:59:07.196Z,4.08
2019-05-13T13:05:19.659Z,4.53
2019-05-13T13:11:17.530Z,3.40
2019-05-13T13:17:24.151Z,3.62
2019-05-13T13:23:27.735Z,2.80
2019-05-13T13:29:34.003Z,3.77
2019-05-13T13:35:38.364Z,2.80
2019-05-13T13:41:43.825Z,2.40
2019-05-13T13:47:59.262Z,3.30
2019-05-13T13:53:56.403Z,3.02
2019-05-13T14:06:06.815Z,3.20
2019-05-13T14:12:11.443Z,3.10
2019-05-13T14:18:15.901Z,3.20
2019-05-13T14:24:21.581Z,3.75
2019-05-13T14:30:26.159Z,2.60
2019-05-13T14:36:30.349Z,3.05
2019-05-13T14:42:34.652Z,3.17
2019-05-13T14:48:38.882Z,2.95
2019-05-13T14:54:43.212Z,4.50
2019-05-13T15:00:47.448Z,4.53
2019-05-13T15:06:51.782Z,4.60
2019-05-13T15:12:56.115Z,4.03
2019-05-13T15:19:01.579Z,4.42
2019-05-13T15:25:06.497Z,3.92
2019-05-13T15:31:11.481Z,4.40
2019-05-13T15:37:15.889Z,4.47
2019-05-13T15:43:22.405Z,3.98
2019-05-13T15:49:26.211Z,3.98
2019-05-13T15:55:30.771Z,5.20
2019-05-13T16:01:35.132Z,4.42
2019-05-13T16:07:41.816Z,5.00
2019-05-13T16:13:45.421Z,5.17
2019-05-13T16:19:53.171Z,5.92
2019-05-13T16:25:55.721Z,5.28
2019-05-13T16:32:01.472Z,5.22
2019-05-13T16:38:05.998Z,5.20
2019-05-13T16:44:11.980Z,4.05
2019-05-13T16:50:16.188Z,5.00
2019-05-13T16:56:27.760Z,5.47
2019-05-13T17:02:26.378Z,5.25
2019-05-13T17:08:31.900Z,4.85
2019-05-13T17:14:36.408Z,4.67
2019-05-13T17:20:41.421Z,4.80
2019-05-13T17:26:45.757Z,4.35
2019-05-13T17:32:51.594Z,4.62
2019-05-13T17:38:55.974Z,4.80
2019-05-13T17:45:02.290Z,5.22
2019-05-13T17:51:06.193Z,4.42
2019-05-13T17:57:12.409Z,4.42
2019-05-13T18:03:16.381Z,4.42
2019-05-13T18:09:22.332Z,4.22
2019-05-13T18:15:26.755Z,4.17
2019-05-13T18:21:31.903Z,4.67
2019-05-13T18:27:36.389Z,4.17
2019-05-13T18:33:42.440Z,3.98
2019-05-13T18:39:46.784Z,3.98
2019-05-13T18:45:52.625Z,4.35
2019-05-13T18:51:57.061Z,4.92
2019-05-13T18:58:01.252Z,4.17
2019-05-13T19:04:05.629Z,4.12
2019-05-13T19:10:11.479Z,5.12
2019-05-13T19:16:15.945Z,4.40
2019-05-13T19:22:21.404Z,4.22
2019-05-13T19:28:25.813Z,3.92
2019-05-13T19:34:32.333Z,4.20
2019-05-13T19:40:36.042Z,4.40
2019-05-13T19:46:42.100Z,4.28
2019-05-13T19:52:46.619Z,4.30
2019-05-13T19:58:50.833Z,4.62
2019-05-13T20:04:55.090Z,4.30
2019-05-13T20:10:59.340Z,4.30
2019-05-13T20:17:03.632Z,4.05
2019-05-13T20:23:08.055Z,4.30
2019-05-13T20:29:12.527Z,4.10
2019-05-13T20:35:16.837Z,4.40
2019-05-13T20:41:22.436Z,4.33
2019-05-13T20:47:26.782Z,3.90
2019-05-13T20:53:31.203Z,3.80
2019-05-13T20:59:35.559Z,4.20
2019-05-13T21:05:41.528Z,3.90
2019-05-13T21:11:45.920Z,4.00
2019-05-13T21:17:51.593Z,4.60
2019-05-13T21:23:56.130Z,4.50
2019-05-13T21:30:01.220Z,4.45
2019-05-13T21:36:05.640Z,4.20
2019-05-13T21:42:11.450Z,6.97
2019-05-13T21:48:15.852Z,4.60
2019-05-13T21:54:20.095Z,4.65
2019-05-13T22:00:27.619Z,4.75
2019-05-13T22:06:32.382Z,4.97
2019-05-13T22:12:36.639Z,5.20
2019-05-13T22:18:41.775Z,5.65
2019-05-13T22:24:46.445Z,5.50
2019-05-13T22:30:51.812Z,5.78
2019-05-13T22:36:56.175Z,6.15
2019-05-13T22:43:00.429Z,5.75
2019-05-13T22:49:04.614Z,6.22
2019-05-13T22:55:11.570Z,6.17
2019-05-13T23:01:15.315Z,6.33
2019-05-13T23:07:19.507Z,6.28
2019-05-13T23:13:23.690Z,6.80
2019-05-13T23:19:27.879Z,6.60
2019-05-13T23:25:32.184Z,6.97
2019-05-13T23:31:36.374Z,6.75
2019-05-13T23:37:41.678Z,6.30
2019-05-13T23:43:46.118Z,7.12
2019-05-13T23:49:51.320Z,7.35
2019-05-13T23:55:55.726Z,6.67
